AirNav   Pilot Hours Calculator
 
 563 users online  

4PS9 Ferrante Heliport
Vandergrift, Pennsylvania, USA

GOING TO VANDERGRIFT?


FAA INFORMATION EFFECTIVE 02 JANUARY 2020

Location

FAA Identifier: 4PS9
Lat/Long: 40-35-55.2360N 079-34-52.1610W
40-35.920600N 079-34.869350W
40.5986767,-79.5811558
(estimated)
Elevation: 950 ft. / 290 m (estimated)
Variation: 08W (1985)
From city: 1 mile E of VANDERGRIFT, PA
Time zone: UTC -5 (UTC -4 during Daylight Saving Time)
Zip code: 15690

Heliport Operations

Heliport use: Private use, PERSONAL USE.
Activation date: 05/1987
Control tower: no
ARTCC: CLEVELAND CENTER
FSS: ALTOONA FLIGHT SERVICE STATION
Attendance: UNATNDD
Segmented circle: no

Heliport Communications

WX AWOS-3PT at BTP (20 nm NW): 121.450 (724-586-6434)

Nearby radio navigation aids

VOR radial/distance  VOR name  Freq  Var
AGCr057/28.4ALLEGHENY VOR/DME110.0009W
EWCr123/31.7ELLWOOD CITY VOR/DME115.8008W
CIPr196/33.3CLARION VOR/DME112.9006W
JSTr302/38.1JOHNSTOWN VOR/DME113.0006W
RECr284/38.1REVLOC VOR/DME110.6009W
IHDr351/38.8INDIAN HEAD VORTAC108.2006W

Heliport Services

Runway Information

Helipad H1

Dimensions: 50 x 50 ft. / 15 x 15 m
Surface: turf
Traffic pattern: leftleft

Heliport Ownership and Management from official FAA records

Ownership: Privately-owned
Owner: ANTHONY M. FERRANTE
210 FERRANTE PLACE
VANDERGRIFT, PA 15690
Phone 412-567-5675

Additional Remarks

A52-H1 +30' TREES 100' W.
FOR CD CTC JOHNSTOWN APCH AT 814-532-5960, WHEN APCH CLSD CTC CLEVELAND ARTCC AT 440-774-0234.

Instrument Procedures

There are no published instrument procedures at 4PS9.

Some nearby airports with instrument procedures:

6P7 - McVille Airport (8 nm N)
KBTP - Pittsburgh/Butler Regional Airport (20 nm NW)
KLBE - Arnold Palmer Regional Airport (21 nm S)
KAGC - Allegheny County Airport (22 nm SW)
KIDI - Indiana County Airport (Jimmy Stewart Field) (22 nm E)
 
Loc | Ops | Rwys | IFR | FBO | Links
Com | Nav | Svcs | Stats | Notes
Area around 4PS9 (Ferrante Heliport)
 
Road maps at: MapQuest Bing Google
 
Aerial photo
No photo
 
Sectional chart

 
Airport distance calculator
Flying to Ferrante Heliport? Find the distance to fly.

From to 4PS9

Sunrise and sunset
Times for 21-Jan-2020
 Local
(UTC-5)
 Zulu
(UTC)
Morning civil twilight07:0812:08
Sunrise07:3812:38
Sunset17:2222:22
Evening civil twilight17:5122:51

Current date and time
Zulu (UTC)  21-Jan-2020 11:23:16
Local (UTC-5)  21-Jan-2020 06:23:16
 
METAR
KBTP 
20nm NW 
211056Z AUTO 26003KT 9SM OVC030 M09/M11 A3049 RMK AO2 SNB31E54 SLP353 P0000 T10941106 FZRANO
KAGC 
21nm SW 
211053Z 30004KT 10SM OVC031 M07/M11 A3048 RMK AO2 SNE0955 SLP347 P0000 T10721106
KLBE 
22nm SE 
211055Z AUTO 00000KT 9SM -SN OVC030 M09/M11 A3050 RMK AO2
KIDI 
23nm E 
211055Z AUTO 24004KT 10SM OVC025 M09/M10 A3049 RMK A01
KP53 
26nm SW 
211056Z AUTO 20004KT M12/M15 A3038 RMK AO1 SLP300 T11171150
KPJC 
29nm NW 
211056Z AUTO 00000KT 10SM BKN034 M10/M10 A3052 RMK AO2
KPIT 
32nm W 
211051Z 33004KT 9SM -SN OVC030 M07/M11 A3050 RMK AO2 SLP354 P0000 T10671106
KJST 
38nm SE 
211054Z AUTO 30007KT 10SM OVC019 M11/M13 A3036 RMK AO2 SLP326 T11061133
KBVI 
39nm W 
211055Z AUTO 30003KT 10SM BKN028 M07/M09 A3050 RMK AO2 T10731095
TAF
KAGC 
21nm SW 
210529Z 2106/2206 34003KT P6SM SKC FM210700 29003KT P6SM -SHSN BKN035 FM211200 28003KT P6SM SCT035 FM220200 26003KT P6SM SKC
KLBE 
22nm SE 
210529Z 2106/2206 35003KT P6SM OVC025 FM210700 32003KT P6SM -SHSN BKN035 FM211500 30003KT P6SM BKN035 FM220200 27003KT P6SM SKC
NOTAMs
Click for the latest NOTAMs
NOTAMs are issued by the DoD/FAA and will open in a separate window not controlled by AirNav.

 

 
 

Would you like to see your business listed on this page?

 If your business provides an interesting product or service to pilots, flight crews, aircraft, or users of the Ferrante Heliport, you should consider listing it here.  To start the listing process, click on the button below
 
Add a business
 

Other Pages about Ferrante Heliport

Update a link
 
Copyright © AirNav, LLC. All rights reserved. Privacy Policy  Contact